createdAt,value
2024-01-11T00:03:54.485Z,16.35
2024-01-11T00:08:58.341Z,16.48
2024-01-11T00:14:02.101Z,16.83
2024-01-11T00:19:07.396Z,16.65
2024-01-11T00:24:11.219Z,16.42
2024-01-11T00:29:15.009Z,15.73
2024-01-11T00:34:20.157Z,16.05
2024-01-11T00:39:24.098Z,17.77
2024-01-11T00:44:27.874Z,17.42
2024-01-11T00:49:33.280Z,17.65
2024-01-11T00:54:37.581Z,16.52
2024-01-11T00:59:42.206Z,17.50
2024-01-11T01:04:47.287Z,16.12
2024-01-11T01:09:51.482Z,17.60
2024-01-11T01:14:55.171Z,17.92
2024-01-11T01:20:00.395Z,17.60
2024-01-11T01:25:05.237Z,18.98
2024-01-11T01:30:10.286Z,16.73
2024-01-11T01:35:15.454Z,18.75
2024-01-11T01:40:19.328Z,18.55
2024-01-11T01:45:23.086Z,17.70
2024-01-11T01:50:28.606Z,17.25
2024-01-11T01:55:33.100Z,17.40
2024-01-11T02:00:36.898Z,18.50
2024-01-11T02:05:42.403Z,18.87
2024-01-11T02:10:47.835Z,19.17
2024-01-11T02:15:51.834Z,19.58
2024-01-11T02:20:57.846Z,18.95
2024-01-11T02:26:03.061Z,20.35
2024-01-11T02:31:06.903Z,18.52
2024-01-11T02:36:11.020Z,19.45
2024-01-11T02:41:18.152Z,20.52
2024-01-11T02:46:21.866Z,20.12
2024-01-11T02:51:25.586Z,19.67
2024-01-11T02:56:30.777Z,19.27
2024-01-11T03:01:34.635Z,18.52
2024-01-11T03:06:38.427Z,18.95
2024-01-11T03:11:43.652Z,18.65
2024-01-11T03:16:47.513Z,20.17
2024-01-11T03:21:51.224Z,18.95
2024-01-11T03:26:56.384Z,19.20
2024-01-11T03:32:00.155Z,17.48
2024-01-11T03:37:03.865Z,19.52
2024-01-11T03:42:09.019Z,19.08
2024-01-11T03:47:12.798Z,19.23
2024-01-11T03:52:16.583Z,18.23
2024-01-11T03:57:21.675Z,17.70
2024-01-11T04:02:25.463Z,18.58
2024-01-11T04:07:29.308Z,17.50
2024-01-11T04:12:34.403Z,17.45
2024-01-11T04:17:38.381Z,16.60
2024-01-11T04:22:42.291Z,17.75
2024-01-11T04:27:47.460Z,16.90
2024-01-11T04:32:51.318Z,16.95
2024-01-11T04:37:55.161Z,16.65
2024-01-11T04:43:00.376Z,16.52
2024-01-11T04:48:04.504Z,16.70
2024-01-11T04:53:08.389Z,16.00
2024-01-11T04:58:13.586Z,15.75
2024-01-11T05:03:17.425Z,16.42
2024-01-11T05:08:21.218Z,16.45
2024-01-11T05:13:26.661Z,15.93
2024-01-11T05:18:33.854Z,15.80
2024-01-11T05:23:38.816Z,16.12
2024-01-11T05:28:43.905Z,16.00
2024-01-11T05:33:48.685Z,15.32
2024-01-11T05:38:53.003Z,15.90
2024-01-11T05:43:58.126Z,15.55
2024-01-11T05:49:01.889Z,14.63
2024-01-11T05:54:05.761Z,13.82
2024-01-11T05:59:10.913Z,15.32
2024-01-11T06:04:14.712Z,14.25
2024-01-11T06:09:18.419Z,14.90
2024-01-11T06:14:23.770Z,15.00
2024-01-11T06:19:27.537Z,15.25
2024-01-11T06:24:31.340Z,16.98
2024-01-11T06:29:36.436Z,16.67
2024-01-11T06:34:42.537Z,15.00
2024-01-11T06:39:46.430Z,15.85
2024-01-11T06:44:51.665Z,16.00
2024-01-11T06:49:55.559Z,15.27
2024-01-11T06:54:59.310Z,15.85
2024-01-11T07:00:05.148Z,14.98
2024-01-11T07:05:09.916Z,14.45
2024-01-11T07:10:13.739Z,16.33
2024-01-11T07:15:19.023Z,14.55
2024-01-11T07:20:22.819Z,14.98
2024-01-11T07:25:26.567Z,15.38
2024-01-11T07:30:31.651Z,15.27
2024-01-11T07:35:35.615Z,15.75
2024-01-11T07:40:42.492Z,15.48
2024-01-11T07:45:48.759Z,16.48
2024-01-11T07:50:52.573Z,15.90
2024-01-11T07:55:56.329Z,16.02
2024-01-11T08:01:01.479Z,14.50
2024-01-11T08:06:06.327Z,17.05
2024-01-11T08:11:10.562Z,16.08
2024-01-11T08:16:19.374Z,15.82
2024-01-11T08:21:23.446Z,16.95
2024-01-11T08:26:27.321Z,17.27
2024-01-11T08:31:32.468Z,18.27
2024-01-11T08:36:36.348Z,18.62
2024-01-11T08:41:40.451Z,18.08
2024-01-11T08:46:46.068Z,17.58
2024-01-11T08:51:49.846Z,18.77
2024-01-11T08:56:54.050Z,19.00
2024-01-11T09:02:10.140Z,19.92
2024-01-11T09:07:19.013Z,18.75
2024-01-11T09:12:22.877Z,21.58
2024-01-11T09:17:28.027Z,19.92
2024-01-11T09:22:31.886Z,20.75
2024-01-11T09:27:36.016Z,22.50
2024-01-11T09:32:41.561Z,21.10
2024-01-11T09:37:47.345Z,21.75
2024-01-11T09:42:51.251Z,21.12
2024-01-11T09:47:56.542Z,21.73
2024-01-11T09:53:04.471Z,23.30
2024-01-11T09:58:10.023Z,23.33
2024-01-11T10:03:15.591Z,22.35
2024-01-11T10:08:20.996Z,22.67
2024-01-11T10:13:30.025Z,22.17
2024-01-11T10:18:35.233Z,23.75
2024-01-11T10:23:40.163Z,22.90
2024-01-11T10:28:46.636Z,22.60
2024-01-11T10:33:51.803Z,22.92
2024-01-11T10:38:57.448Z,23.98
2024-01-11T10:44:04.121Z,23.20
2024-01-11T10:49:11.537Z,23.90
2024-01-11T10:54:16.026Z,25.08
2024-01-11T10:59:20.587Z,22.20
2024-01-11T11:04:27.059Z,22.80
2024-01-11T11:09:32.696Z,24.15
2024-01-11T11:14:37.098Z,24.65
2024-01-11T11:19:42.667Z,24.30
2024-01-11T11:24:46.434Z,23.80
2024-01-11T11:29:51.556Z,24.48
2024-01-11T11:34:57.768Z,24.92
2024-01-11T11:40:02.207Z,24.50
2024-01-11T11:45:07.843Z,24.40
2024-01-11T11:50:15.043Z,25.00
2024-01-11T11:55:19.200Z,24.15
2024-01-11T12:00:23.453Z,23.67
2024-01-11T12:05:28.648Z,23.40
2024-01-11T12:10:32.682Z,24.05
2024-01-11T12:15:36.751Z,22.60
2024-01-11T12:20:42.542Z,25.00
2024-01-11T12:25:46.448Z,24.17
2024-01-11T12:30:50.399Z,25.77
2024-01-11T12:35:56.051Z,24.12
2024-01-11T12:40:59.955Z,24.40
2024-01-11T12:46:04.348Z,21.37
2024-01-11T12:51:14.624Z,15.20
2024-01-11T12:56:25.660Z,14.00
2024-01-11T13:01:29.619Z,13.48
2024-01-11T13:06:35.525Z,13.55
2024-01-11T13:11:39.494Z,13.93
2024-01-11T13:16:43.339Z,15.23
2024-01-11T13:21:48.474Z,14.48
2024-01-11T13:26:52.338Z,14.98
2024-01-11T13:31:56.420Z,14.27
2024-01-11T13:37:02.193Z,15.38
2024-01-11T13:42:10.391Z,15.23
2024-01-11T13:47:14.262Z,14.87
2024-01-11T13:52:19.437Z,15.50
2024-01-11T13:57:23.480Z,15.20
2024-01-11T14:02:27.329Z,15.85
2024-01-11T14:07:32.670Z,15.93
2024-01-11T14:12:36.998Z,15.57
2024-01-11T14:17:41.708Z,14.98
2024-01-11T14:22:50.416Z,14.30
2024-01-11T14:27:54.840Z,13.75
2024-01-11T14:32:58.811Z,14.13
2024-01-11T14:38:05.470Z,14.35
2024-01-11T14:43:09.551Z,14.73
2024-01-11T14:48:13.613Z,16.08
2024-01-11T14:53:19.622Z,16.00
2024-01-11T14:58:23.395Z,15.77
2024-01-11T15:03:27.240Z,15.77
2024-01-11T15:08:32.481Z,15.80
2024-01-11T15:13:36.307Z,16.00
2024-01-11T15:18:40.184Z,15.35
2024-01-11T15:23:45.406Z,15.23
2024-01-11T15:28:49.408Z,16.87
2024-01-11T15:33:53.356Z,15.43
2024-01-11T15:39:07.864Z,16.83
2024-01-11T15:44:17.437Z,17.33
2024-01-11T15:49:21.212Z,17.05
2024-01-11T15:54:27.272Z,17.48
2024-01-11T15:59:31.058Z,16.80
2024-01-11T16:04:35.038Z,16.75
2024-01-11T16:09:40.169Z,16.42
2024-01-11T16:14:46.017Z,15.93
2024-01-11T16:19:49.845Z,18.12
2024-01-11T16:24:55.562Z,16.67
2024-01-11T16:30:02.821Z,16.75
2024-01-11T16:35:07.747Z,17.65
2024-01-11T16:40:14.517Z,18.17
2024-01-11T16:45:19.467Z,16.42
2024-01-11T16:50:23.222Z,17.33
2024-01-11T16:55:28.905Z,17.30
2024-01-11T17:00:32.648Z,18.17
2024-01-11T17:05:37.186Z,15.90
2024-01-11T17:10:42.476Z,17.35
2024-01-11T17:15:46.288Z,20.02
2024-01-11T17:20:50.209Z,21.08
2024-01-11T17:25:55.467Z,19.27
2024-01-11T17:30:59.313Z,19.92
2024-01-11T17:36:03.243Z,19.17
2024-01-11T17:41:08.521Z,19.70
2024-01-11T17:46:12.309Z,20.15
2024-01-11T17:51:16.174Z,20.92
2024-01-11T17:56:22.546Z,19.92
2024-01-11T18:01:27.824Z,20.95
2024-01-11T18:06:31.827Z,20.95
2024-01-11T18:11:37.220Z,21.42
2024-01-11T18:16:41.016Z,20.58
2024-01-11T18:21:44.747Z,21.98
2024-01-11T18:26:50.046Z,21.85
2024-01-11T18:31:53.874Z,22.27
2024-01-11T18:36:57.617Z,23.12
2024-01-11T18:42:03.232Z,24.95
2024-01-11T18:47:07.612Z,24.42
2024-01-11T18:52:11.403Z,24.40
2024-01-11T18:57:17.182Z,29.05
2024-01-11T19:02:21.034Z,25.58
2024-01-11T19:07:24.817Z,26.40
2024-01-11T19:12:29.971Z,26.30
2024-01-11T19:17:33.772Z,27.00
2024-01-11T19:22:37.513Z,25.70
2024-01-11T19:27:42.644Z,26.40
2024-01-11T19:32:46.834Z,27.65
2024-01-11T19:37:50.761Z,25.20
2024-01-11T19:42:55.838Z,28.92
2024-01-11T19:47:59.752Z,26.55
2024-01-11T19:53:03.718Z,27.27
2024-01-11T19:58:08.900Z,28.50
2024-01-11T20:03:12.739Z,28.83
2024-01-11T20:08:16.542Z,27.52
2024-01-11T20:13:21.709Z,28.90
2024-01-11T20:18:28.618Z,27.60
2024-01-11T20:23:33.228Z,28.20
2024-01-11T20:28:38.461Z,28.52
2024-01-11T20:33:42.412Z,29.65
2024-01-11T20:38:46.577Z,28.85
2024-01-11T20:43:52.806Z,29.05
2024-01-11T20:48:57.286Z,29.20
2024-01-11T20:54:02.073Z,29.55
2024-01-11T20:59:07.313Z,28.52
2024-01-11T21:04:11.213Z,30.70
2024-01-11T21:09:15.026Z,30.12
2024-01-11T21:14:20.715Z,29.12
2024-01-11T21:19:24.599Z,27.52
2024-01-11T21:24:28.399Z,31.30
2024-01-11T21:29:34.225Z,30.17
2024-01-11T21:34:38.054Z,29.58
2024-01-11T21:39:41.826Z,30.50
2024-01-11T21:44:46.990Z,31.40
2024-01-11T21:49:50.968Z,34.25
2024-01-11T21:54:54.742Z,30.12
2024-01-11T21:59:59.885Z,33.03
2024-01-11T22:05:04.350Z,34.40
2024-01-11T22:10:10.249Z,31.48
2024-01-11T22:15:15.378Z,34.17
2024-01-11T22:20:19.388Z,30.50
2024-01-11T22:25:23.223Z,31.20
2024-01-11T22:30:28.472Z,28.95
2024-01-11T22:35:32.310Z,30.90
2024-01-11T22:40:36.111Z,30.20
2024-01-11T22:45:41.195Z,29.52
2024-01-11T22:50:44.942Z,31.35
2024-01-11T22:55:48.662Z,28.20
2024-01-11T23:00:54.302Z,30.02
2024-01-11T23:05:58.444Z,30.83
2024-01-11T23:11:04.073Z,28.25
2024-01-11T23:16:09.268Z,29.15
2024-01-11T23:21:13.045Z,31.25
2024-01-11T23:26:16.795Z,28.60
2024-01-11T23:31:21.980Z,27.80
2024-01-11T23:36:25.903Z,28.98
2024-01-11T23:41:29.644Z,29.02
2024-01-11T23:46:34.791Z,27.92
2024-01-11T23:51:38.890Z,31.65
2024-01-11T23:56:43.089Z,25.65
